createdAt,value
2022-12-11T00:00:25.094Z,11.3
2022-12-11T00:05:25.103Z,9.9
2022-12-11T00:10:25.093Z,9
2022-12-11T00:15:25.106Z,8.6
2022-12-11T00:20:25.092Z,7.9
2022-12-11T00:25:25.094Z,7.3
2022-12-11T00:30:25.092Z,9.3
2022-12-11T00:35:25.106Z,10.7
2022-12-11T00:40:25.097Z,11.2
2022-12-11T00:45:25.097Z,13
2022-12-11T00:50:25.097Z,12
2022-12-11T00:55:25.097Z,12.5
2022-12-11T01:00:25.091Z,13
2022-12-11T01:05:25.093Z,12.5
2022-12-11T01:10:25.193Z,12.1
2022-12-11T01:15:25.102Z,9.3
2022-12-11T01:20:25.088Z,8.7
2022-12-11T01:25:25.098Z,8.7
2022-12-11T01:30:25.158Z,9.6
2022-12-11T01:35:25.101Z,9.6
2022-12-11T01:40:25.107Z,8.4
2022-12-11T01:45:26.985Z,7.8
2022-12-11T01:50:25.096Z,7.5
2022-12-11T01:55:25.102Z,7.5
2022-12-11T02:00:25.091Z,6.7
2022-12-11T02:05:25.108Z,6.3
2022-12-11T02:10:25.100Z,7.5
2022-12-11T02:15:25.104Z,7.6
2022-12-11T02:20:25.085Z,7.5
2022-12-11T02:25:25.102Z,7.5
2022-12-11T02:30:25.091Z,11.8
2022-12-11T02:35:25.100Z,9.2
2022-12-11T02:40:25.099Z,7.8
2022-12-11T02:45:25.099Z,9
2022-12-11T02:50:25.100Z,8.5
2022-12-11T02:55:25.091Z,8.2
2022-12-11T03:00:25.102Z,8.6
2022-12-11T03:05:25.140Z,12
2022-12-11T03:10:25.101Z,13.1
2022-12-11T03:15:25.094Z,13.1
2022-12-11T03:20:25.093Z,12.7
2022-12-11T03:25:25.103Z,12.8
2022-12-11T03:30:25.165Z,11.5
2022-12-11T03:35:25.104Z,11.5
2022-12-11T03:40:25.087Z,9.4
2022-12-11T03:45:25.100Z,9.7
2022-12-11T03:50:25.095Z,8.1
2022-12-11T03:55:25.097Z,12.2
2022-12-11T04:00:25.101Z,8.8
2022-12-11T04:05:25.098Z,8.8
2022-12-11T04:10:25.092Z,10
2022-12-11T04:15:25.092Z,9.2
2022-12-11T04:20:25.089Z,9.2
2022-12-11T04:25:25.102Z,4
2022-12-11T04:30:28.108Z,0
2022-12-11T04:35:25.099Z,5.1
2022-12-11T04:40:25.100Z,8.6
2022-12-11T04:45:25.104Z,6.5
2022-12-11T04:50:25.102Z,6.7
2022-12-11T04:55:25.095Z,4
2022-12-11T05:00:25.085Z,0
2022-12-11T05:05:25.102Z,0
2022-12-11T05:10:25.090Z,0
2022-12-11T05:15:25.096Z,5.2
2022-12-11T05:20:25.108Z,6.8
2022-12-11T05:25:25.096Z,6.7
2022-12-11T05:30:25.092Z,6.1
2022-12-11T05:35:25.099Z,8.9
2022-12-11T05:40:25.093Z,7.5
2022-12-11T05:45:25.095Z,12
2022-12-11T05:50:25.092Z,7.7
2022-12-11T05:55:25.110Z,6
2022-12-11T06:00:25.093Z,5.8
2022-12-11T06:05:25.102Z,0
2022-12-11T06:10:25.090Z,6.7
2022-12-11T06:15:25.092Z,7.7
2022-12-11T06:20:25.093Z,6.2
2022-12-11T06:25:25.090Z,0
2022-12-11T06:30:37.680Z,5.3
2022-12-11T06:35:25.106Z,6.1
2022-12-11T06:40:25.103Z,6.4
2022-12-11T06:45:25.174Z,6.4
2022-12-11T06:50:25.093Z,0
2022-12-11T06:55:25.097Z,0
2022-12-11T07:00:25.091Z,0
2022-12-11T07:05:25.096Z,4.9
2022-12-11T07:10:25.087Z,0
2022-12-11T07:15:25.095Z,5.7
2022-12-11T07:20:25.091Z,9.7
2022-12-11T07:25:25.093Z,7.8
2022-12-11T07:30:25.085Z,14.7
2022-12-11T07:35:25.098Z,21
2022-12-11T07:40:25.087Z,23.4
2022-12-11T07:45:25.099Z,9.8
2022-12-11T07:50:25.093Z,8.5
2022-12-11T07:55:25.094Z,9.2
2022-12-11T08:00:25.087Z,13
2022-12-11T08:05:25.109Z,11.5
2022-12-11T08:10:25.174Z,14.3
2022-12-11T08:15:25.111Z,14.2
2022-12-11T08:20:25.223Z,10.3
2022-12-11T08:25:25.112Z,11.9
2022-12-11T08:30:25.117Z,13.6
2022-12-11T08:35:25.115Z,10.5
2022-12-11T08:40:25.098Z,8.6
2022-12-11T08:45:25.097Z,11.7
2022-12-11T08:50:25.092Z,9.6
2022-12-11T08:55:25.099Z,11.6
2022-12-11T09:00:25.087Z,9.4
2022-12-11T09:05:25.111Z,9.4
2022-12-11T09:10:25.091Z,9.9
2022-12-11T09:15:25.100Z,9.9
2022-12-11T09:20:25.087Z,9.6
2022-12-11T09:25:25.097Z,9.6
2022-12-11T09:30:25.094Z,10.6
2022-12-11T09:35:25.111Z,10.6
2022-12-11T09:40:25.095Z,9.8
2022-12-11T09:45:25.097Z,13.5
2022-12-11T09:50:25.096Z,9.3
2022-12-11T09:55:25.097Z,10.8
2022-12-11T10:00:25.094Z,10.8
2022-12-11T10:05:25.103Z,11.7
2022-12-11T10:10:25.101Z,12.9
2022-12-11T10:15:25.095Z,8.3
2022-12-11T10:20:25.099Z,9.6
2022-12-11T10:25:25.591Z,11.7
2022-12-11T10:30:25.096Z,11.7
2022-12-11T10:35:25.096Z,5.5
2022-12-11T10:40:25.090Z,9.3
2022-12-11T10:45:25.111Z,8.4
2022-12-11T10:50:25.090Z,8.1
2022-12-11T10:55:25.103Z,8.3
2022-12-11T11:00:25.092Z,10
2022-12-11T11:05:25.098Z,10.5
2022-12-11T11:10:25.095Z,8.1
2022-12-11T11:15:25.095Z,8.4
2022-12-11T11:20:25.098Z,4
2022-12-11T11:25:25.103Z,0
2022-12-11T11:30:25.099Z,7.9
2022-12-11T11:35:25.096Z,5.5
2022-12-11T11:40:25.100Z,8.2
2022-12-11T11:45:25.104Z,10.4
2022-12-11T11:50:25.095Z,10.4
2022-12-11T11:55:25.094Z,8.7
2022-12-11T12:00:28.795Z,9.4
2022-12-11T12:05:25.109Z,10.5
2022-12-11T12:10:25.098Z,7.7
2022-12-11T12:15:25.107Z,10.6
2022-12-11T12:20:25.102Z,7.9
2022-12-11T12:25:25.108Z,11.6
2022-12-11T12:30:25.089Z,10.2
2022-12-11T12:35:25.107Z,7.5
2022-12-11T12:40:25.100Z,11.5
2022-12-11T12:45:25.138Z,8.7
2022-12-11T12:50:25.103Z,7.9
2022-12-11T12:55:25.110Z,8.4
2022-12-11T13:00:25.120Z,12.7
2022-12-11T13:05:25.109Z,9.1
2022-12-11T13:10:25.097Z,12.2
2022-12-11T13:15:25.094Z,15
2022-12-11T13:20:25.104Z,15.1
2022-12-11T13:25:25.096Z,15.1
2022-12-11T13:30:25.111Z,12.4
2022-12-11T13:35:25.096Z,11
2022-12-11T13:40:25.101Z,10.4
2022-12-11T13:45:25.179Z,11.9
2022-12-11T13:50:25.086Z,11.7
2022-12-11T13:55:25.097Z,11.5
2022-12-11T14:00:25.090Z,10
2022-12-11T14:05:25.104Z,8.9
2022-12-11T14:10:25.102Z,11.1
2022-12-11T14:15:25.093Z,13.5
2022-12-11T14:20:25.089Z,13.4
2022-12-11T14:25:25.108Z,12.1
2022-12-11T14:30:25.086Z,11.9
2022-12-11T14:35:25.094Z,12.6
2022-12-11T14:40:25.094Z,7.5
2022-12-11T14:45:25.104Z,10
2022-12-11T14:50:25.095Z,9.1
2022-12-11T14:55:25.099Z,15.4
2022-12-11T15:00:25.083Z,15.4
2022-12-11T15:05:25.105Z,6.7
2022-12-11T15:10:25.087Z,6.7
2022-12-11T15:15:25.106Z,7.9
2022-12-11T15:20:25.091Z,7.9
2022-12-11T15:25:25.096Z,8.9
2022-12-11T15:30:25.142Z,9.7
2022-12-11T15:35:25.109Z,9.3
2022-12-11T15:40:25.089Z,8.5
2022-12-11T15:45:25.096Z,9.4
2022-12-11T15:50:25.092Z,10.5
2022-12-11T15:55:25.096Z,10.7
2022-12-11T16:00:25.091Z,11.8
2022-12-11T16:05:25.096Z,12
2022-12-11T16:10:25.088Z,11.6
2022-12-11T16:15:25.310Z,11.6
2022-12-11T16:20:25.092Z,10.9
2022-12-11T16:25:25.107Z,9.6
2022-12-11T16:30:25.099Z,10.3
2022-12-11T16:35:25.099Z,9.7
2022-12-11T16:40:25.098Z,9.6
2022-12-11T16:45:25.098Z,8.6
2022-12-11T16:50:25.092Z,12.2
2022-12-11T16:55:25.096Z,11.5
2022-12-11T17:00:25.095Z,12.2
2022-12-11T17:05:25.098Z,13.8
2022-12-11T17:10:25.088Z,11.9
2022-12-11T17:15:25.105Z,12.3
2022-12-11T17:20:25.091Z,13.8
2022-12-11T17:25:25.099Z,10.6
2022-12-11T17:30:25.089Z,12.4
2022-12-11T17:35:25.122Z,12.8
2022-12-11T17:40:25.126Z,9.7
2022-12-11T17:45:25.104Z,11.3
2022-12-11T17:50:25.091Z,11.1
2022-12-11T17:55:25.162Z,9.4
2022-12-11T18:00:27.444Z,13
2022-12-11T18:05:25.100Z,11.7
2022-12-11T18:10:25.102Z,11.5
2022-12-11T18:15:25.100Z,12.1
2022-12-11T18:20:25.087Z,11.5
2022-12-11T18:25:25.093Z,12.8
2022-12-11T18:30:25.089Z,9.4
2022-12-11T18:35:25.094Z,9.5
2022-12-11T18:40:25.091Z,10.1
2022-12-11T18:45:25.096Z,8.4
2022-12-11T18:50:25.090Z,10.2
2022-12-11T18:55:25.107Z,11.2
2022-12-11T19:00:25.124Z,11.2
2022-12-11T19:05:25.095Z,12
2022-12-11T19:10:25.087Z,7.6
2022-12-11T19:15:25.090Z,10.6
2022-12-11T19:20:47.845Z,11.4
2022-12-11T19:25:25.093Z,12.1
2022-12-11T19:30:25.089Z,11.1
2022-12-11T19:35:25.097Z,12.7
2022-12-11T19:40:25.093Z,12.4
2022-12-11T19:45:25.097Z,10.9
2022-12-11T19:50:25.095Z,11.6
2022-12-11T19:55:25.092Z,11
2022-12-11T20:00:25.095Z,10.4
2022-12-11T20:05:25.106Z,9.8
2022-12-11T20:10:25.110Z,12.9
2022-12-11T20:15:25.106Z,11.3
2022-12-11T20:20:25.104Z,13.7
2022-12-11T20:25:25.100Z,13
2022-12-11T20:30:25.089Z,11.4
2022-12-11T20:35:25.100Z,9.8
2022-12-11T20:40:25.091Z,10.3
2022-12-11T20:45:25.148Z,8.8
2022-12-11T20:50:25.098Z,10.8
2022-12-11T20:55:25.098Z,10.3
2022-12-11T21:00:25.091Z,10.3
2022-12-11T21:05:25.101Z,13.9
2022-12-11T21:10:25.108Z,13.9
2022-12-11T21:15:25.094Z,13.1
2022-12-11T21:20:25.094Z,13.1
2022-12-11T21:25:25.093Z,11.5
2022-12-11T21:30:25.089Z,11.3
2022-12-11T21:35:25.098Z,12.8
2022-12-11T21:40:25.098Z,10.9
2022-12-11T21:45:59.047Z,12.9
2022-12-11T21:50:25.091Z,11.6
2022-12-11T21:55:25.089Z,9.2
2022-12-11T22:00:25.093Z,11.3
2022-12-11T22:05:25.099Z,8.8
2022-12-11T22:10:25.094Z,9.8
2022-12-11T22:15:25.091Z,8
2022-12-11T22:20:25.102Z,5.5
2022-12-11T22:25:25.104Z,6.6
2022-12-11T22:30:25.090Z,18.7
2022-12-11T22:35:27.243Z,9.7
2022-12-11T22:40:25.091Z,13
2022-12-11T22:45:25.097Z,11.9
2022-12-11T22:50:25.094Z,14.5
2022-12-11T22:55:25.113Z,15.8
2022-12-11T23:00:25.116Z,15.2
2022-12-11T23:05:25.094Z,12
2022-12-11T23:10:25.093Z,16.1
2022-12-11T23:15:25.090Z,13.7
2022-12-11T23:20:25.089Z,14.8
2022-12-11T23:25:25.100Z,14.3
2022-12-11T23:30:25.093Z,14.1
2022-12-11T23:35:25.104Z,14.2
2022-12-11T23:40:25.097Z,11
2022-12-11T23:45:25.098Z,13.2
2022-12-11T23:50:25.094Z,13.5
2022-12-11T23:55:25.097Z,12.4
